Time;durP1;ratioP1;P1;durP2;ratioP2;P2;SDS_P1;SDS_P2;PMS_P1;PMS_P2;Temp;Humidity;BMP_temperature;BMP_pressure;BME280_temperature;BME280_humidity;BME280_pressure;Samples;Min_cycle;Max_cycle;Signal;HPM_P1;HPM_P2
2022/03/07 00:01:46;;;;;;;26.60;14.27;;;;;;;2.22;56.86;100693.16;6324653;22;20090;-87
2022/03/07 00:04:14;;;;;;;27.95;14.07;;;;;;;2.47;55.80;100689.72;6302605;22;20026;-86
2022/03/07 00:06:40;;;;;;;30.15;13.88;;;;;;;2.22;54.76;100701.00;6314176;22;20019;-87
2022/03/07 00:09:06;;;;;;;26.83;14.07;;;;;;;2.00;56.60;100696.41;6317772;22;20060;-87
2022/03/07 00:11:39;;;;;;;28.45;14.80;;;;;;;1.83;57.83;100698.47;6316317;22;20015;-85
2022/03/07 00:14:05;;;;;;;;;;;;;;;1.67;59.01;100701.28;6313186;22;20015;-84
2022/03/07 00:16:32;;;;;;;29.33;15.07;;;;;;;1.83;58.37;100706.31;6315647;22;19925;-86
2022/03/07 00:18:59;;;;;;;29.67;15.18;;;;;;;1.84;58.72;100700.16;6318140;22;20004;-87
2022/03/07 00:21:25;;;;;;;30.23;15.95;;;;;;;1.66;59.51;100704.00;6316946;22;20017;-87
2022/03/07 00:23:51;;;;;;;42.05;16.60;;;;;;;1.54;59.35;100703.88;6313239;22;20042;-85
2022/03/07 00:26:18;;;;;;;29.77;15.77;;;;;;;1.27;60.48;100705.66;6314937;22;20103;-86
2022/03/07 00:28:45;;;;;;;30.10;14.05;;;;;;;1.32;60.35;100705.38;6316847;22;20393;-86
2022/03/07 00:31:14;;;;;;;31.45;14.40;;;;;;;1.64;59.79;100711.09;6307861;22;20011;-86
2022/03/07 00:33:43;;;;;;;28.10;14.48;;;;;;;1.86;58.02;100708.72;6318504;22;20034;-87
2022/03/07 00:36:09;;;;;;;27.88;14.07;;;;;;;1.94;57.96;100714.28;6316689;22;20026;-84
2022/03/07 00:38:35;;;;;;;29.92;16.08;;;;;;;1.89;58.20;100716.38;6315195;22;20004;-86
2022/03/07 00:41:01;;;;;;;31.85;15.18;;;;;;;1.97;58.63;100714.06;6316538;22;20015;-87
2022/03/07 00:43:27;;;;;;;31.70;16.08;;;;;;;1.91;57.81;100724.94;6316631;22;20035;-86
2022/03/07 00:45:53;;;;;;;29.27;13.95;;;;;;;2.21;57.76;100727.28;6317526;22;20046;-85
2022/03/07 00:48:19;;;;;;;31.13;14.52;;;;;;;1.87;57.67;100732.16;6317396;22;20015;-86
2022/03/07 00:50:46;;;;;;;31.33;14.70;;;;;;;1.78;59.00;100740.59;6317949;22;20329;-85
2022/03/07 00:53:14;;;;;;;26.05;14.65;;;;;;;1.74;58.69;100738.28;6319516;22;20094;-84
2022/03/07 00:55:40;;;;;;;29.10;14.52;;;;;;;1.97;58.26;100740.22;6323658;22;20029;-85
2022/03/07 00:58:06;;;;;;;36.33;14.15;;;;;;;2.12;57.47;100746.22;6323166;22;20007;-86
2022/03/07 01:00:38;;;;;;;29.80;14.60;;;;;;;2.28;57.17;100741.63;6318141;22;20049;-84
2022/03/07 01:03:05;;;;;;;21.27;11.02;;;;;;;2.64;57.17;100752.19;6318873;22;20511;-85
2022/03/07 01:05:31;;;;;;;35.70;16.13;;;;;;;2.04;57.48;100754.56;6317303;22;20006;-86
2022/03/07 01:07:57;;;;;;;33.90;15.60;;;;;;;2.18;58.06;100751.88;6317752;22;20082;-84
2022/03/07 01:10:23;;;;;;;36.60;17.50;;;;;;;2.19;57.40;100753.50;6314832;22;20008;-85
2022/03/07 01:12:50;;;;;;;38.92;18.58;;;;;;;2.06;57.42;100747.44;6317051;22;20056;-85
2022/03/07 01:15:16;;;;;;;32.30;17.50;;;;;;;1.54;59.56;100752.66;6314727;22;20018;-84
2022/03/07 01:17:42;;;;;;;34.25;17.13;;;;;;;1.78;59.12;100739.75;6311076;22;20007;-87
2022/03/07 01:20:09;;;;;;;32.10;16.00;;;;;;;1.32;60.93;100747.97;6310619;22;20004;-83
2022/03/07 01:22:36;;;;;;;32.25;15.05;;;;;;;1.13;61.63;100742.22;6309436;22;20532;-85
2022/03/07 01:25:03;;;;;;;32.15;14.45;;;;;;;1.19;61.72;100736.66;6309006;22;20052;-85
2022/03/07 01:27:29;;;;;;;31.00;14.70;;;;;;;1.23;61.54;100738.09;6309041;22;20023;-85
2022/03/07 01:29:54;;;;;;;30.52;13.93;;;;;;;1.17;61.88;100742.88;6310591;22;19999;-85
2022/03/07 01:32:20;;;;;;;24.05;13.30;;;;;;;1.49;61.82;100729.44;6308812;22;20010;-84
2022/03/07 01:34:45;;;;;;;30.15;14.95;;;;;;;1.27;62.03;100718.69;6310422;22;20090;-84
2022/03/07 01:37:11;;;;;;;27.83;14.77;;;;;;;0.94;62.88;100736.50;6310704;22;20021;-86
2022/03/07 01:39:36;;;;;;;36.60;14.30;;;;;;;0.83;62.70;100721.50;6308915;22;20007;-86
2022/03/07 01:42:03;;;;;;;32.78;13.80;;;;;;;0.80;62.36;100716.47;6308978;22;20007;-85
2022/03/07 01:44:28;;;;;;;23.55;12.40;;;;;;;0.83;62.15;100723.28;6313827;22;20134;-84
2022/03/07 01:46:56;;;;;;;23.77;12.15;;;;;;;0.90;62.10;100714.13;6324270;22;20015;-84
2022/03/07 01:49:23;;;;;;;27.63;14.13;;;;;;;0.85;61.85;100717.03;6325124;22;20015;-83
2022/03/07 01:51:49;;;;;;;27.77;13.68;;;;;;;0.89;61.88;100712.47;6317199;22;20007;-85
2022/03/07 01:54:18;;;;;;;28.33;13.00;;;;;;;0.80;61.87;100710.41;6307476;22;20018;-85
2022/03/07 01:56:46;;;;;;;27.63;12.50;;;;;;;1.02;61.62;100702.94;6306390;22;20099;-84
2022/03/07 01:59:19;;;;;;;22.80;11.15;;;;;;;1.28;60.58;100703.88;6306854;22;20023;-84
2022/03/07 02:01:45;;;;;;;24.08;12.70;;;;;;;1.55;59.14;100702.09;6279811;22;20015;-85
2022/03/07 02:04:11;;;;;;;23.38;11.65;;;;;;;1.72;58.38;100709.66;6307382;22;20215;-85
2022/03/07 02:06:38;;;;;;;29.10;12.35;;;;;;;1.63;58.54;100709.41;6305674;22;20406;-83
2022/03/07 02:09:07;;;;;;;24.15;12.10;;;;;;;1.70;57.97;100701.06;6305510;22;20043;-83
2022/03/07 02:11:38;;;;;;;24.60;12.07;;;;;;;1.77;57.91;100701.50;6307627;22;20364;-86
2022/03/07 02:14:16;;;;;;;22.48;11.63;;;;;;;2.00;57.54;100703.41;6305660;22;20007;-83
2022/03/07 02:16:44;;;;;;;21.20;10.90;;;;;;;2.13;56.57;100712.09;6280811;22;20339;-85
2022/03/07 02:19:10;;;;;;;24.13;11.90;;;;;;;2.06;56.69;100709.06;6307688;22;20007;-84
2022/03/07 02:21:46;;;;;;;24.77;11.50;;;;;;;2.20;56.74;100708.13;6312801;22;20403;-86
2022/03/07 02:24:32;;;;;;;25.08;12.60;;;;;;;1.32;58.49;100700.97;6320394;22;20451;-84
2022/03/07 02:27:05;;;;;;;27.33;12.45;;;;;;;1.05;60.04;100692.31;6313250;22;20015;-83
2022/03/07 02:29:32;;;;;;;24.90;11.95;;;;;;;1.13;59.94;100700.47;6281898;22;20065;-84
2022/03/07 02:32:04;;;;;;;24.70;11.98;;;;;;;1.37;59.30;100696.28;6307478;22;20093;-84
2022/03/07 02:34:32;;;;;;;24.30;12.15;;;;;;;1.32;58.67;100690.53;6282215;22;20015;-83
2022/03/07 02:36:59;;;;;;;22.40;12.02;;;;;;;1.13;59.25;100692.63;6306758;22;20042;-84
2022/03/07 02:39:26;;;;;;;21.50;10.90;;;;;;;1.49;59.50;100698.09;6307280;22;20022;-84
2022/03/07 02:41:53;;;;;;;23.88;12.10;;;;;;;1.54;58.84;100690.81;6306701;22;20015;-84
2022/03/07 02:44:19;;;;;;;23.05;11.73;;;;;;;1.60;58.31;100688.72;6281002;22;20389;-83
2022/03/07 02:46:44;;;;;;;25.23;11.90;;;;;;;1.26;59.26;100690.09;6281131;22;20011;-86
2022/03/07 02:49:10;;;;;;;22.25;12.00;;;;;;;1.18;60.54;100690.59;6307117;22;20018;-85
2022/03/07 02:51:36;;;;;;;22.55;12.02;;;;;;;1.22;60.11;100689.47;6307122;22;20023;-84
2022/03/07 02:54:02;;;;;;;23.02;12.02;;;;;;;1.33;59.52;100684.34;6306853;22;20347;-85
2022/03/07 02:56:28;;;;;;;26.48;12.27;;;;;;;1.29;60.11;100690.75;6307105;22;20381;-84
2022/03/07 02:58:54;;;;;;;23.02;11.77;;;;;;;1.28;60.65;100686.44;6308357;22;20033;-83
2022/03/07 03:01:20;;;;;;;26.67;13.05;;;;;;;1.59;59.79;100682.69;6308392;22;20330;-85
2022/03/07 03:03:45;;;;;;;26.15;11.98;;;;;;;1.55;59.23;100686.41;6307928;22;20013;-86
2022/03/07 03:06:11;;;;;;;24.10;11.35;;;;;;;1.70;59.05;100684.56;6308012;22;20026;-86
2022/03/07 03:08:37;;;;;;;26.70;11.18;;;;;;;1.74;58.42;100680.81;6310328;22;20092;-85
2022/03/07 03:11:02;;;;;;;20.23;10.77;;;;;;;1.71;58.32;100681.00;6308450;22;20007;-84
2022/03/07 03:13:28;;;;;;;22.27;11.07;;;;;;;1.39;59.23;100685.75;6308255;22;20010;-85
2022/03/07 03:15:55;;;;;;;22.88;11.13;;;;;;;1.56;59.84;100683.69;6308029;22;20045;-86
2022/03/07 03:18:22;;;;;;;26.88;11.07;;;;;;;1.77;59.15;100686.66;6307688;22;20014;-84
2022/03/07 03:20:50;;;;;;;20.83;11.07;;;;;;;1.77;58.38;100683.22;6309038;22;20082;-84
2022/03/07 03:23:17;;;;;;;22.77;11.13;;;;;;;1.62;58.85;100690.31;6306840;22;20503;-85
2022/03/07 03:25:43;;;;;;;22.60;11.57;;;;;;;1.54;59.50;100685.59;6307736;22;20016;-86
2022/03/07 03:28:08;;;;;;;24.58;11.70;;;;;;;1.41;59.75;100684.72;6307575;22;20324;-87
2022/03/07 03:30:34;;;;;;;22.33;10.38;;;;;;;1.39;59.62;100686.56;6307739;22;20045;-84
2022/03/07 03:33:00;;;;;;;20.48;10.95;;;;;;;1.27;60.68;100687.38;6307699;22;20080;-85
2022/03/07 03:35:26;;;;;;;22.60;10.85;;;;;;;1.02;60.89;100693.34;6307491;22;20011;-83
2022/03/07 03:37:52;;;;;;;24.27;12.02;;;;;;;0.85;61.45;100687.50;6307405;22;20023;-86
2022/03/07 03:40:18;;;;;;;23.95;12.05;;;;;;;1.01;61.20;100686.44;6307542;22;20066;-85
2022/03/07 03:42:44;;;;;;;25.15;11.82;;;;;;;1.05;61.17;100687.09;6307931;22;20007;-85
2022/03/07 03:45:11;;;;;;;22.58;11.45;;;;;;;1.30;60.87;100686.31;6308937;22;20018;-84
2022/03/07 03:47:42;;;;;;;24.92;11.70;;;;;;;1.44;60.49;100679.28;6309237;22;20015;-85
2022/03/07 03:50:10;;;;;;;20.40;10.52;;;;;;;1.54;60.20;100685.59;6308028;22;20013;-86
2022/03/07 03:52:37;;;;;;;21.67;11.20;;;;;;;1.14;60.97;100680.41;6308892;22;20007;-82
2022/03/07 03:55:04;;;;;;;23.15;11.77;;;;;;;1.16;60.77;100682.00;6307816;22;20018;-83
2022/03/07 03:57:30;;;;;;;27.45;11.20;;;;;;;1.28;59.77;100688.22;6307874;22;20011;-85
2022/03/07 03:59:56;;;;;;;23.20;10.75;;;;;;;1.43;59.64;100682.81;6307436;22;20011;-84
2022/03/07 04:02:21;;;;;;;23.13;11.25;;;;;;;1.44;58.91;100689.72;6307850;22;20003;-85
2022/03/07 04:04:47;;;;;;;19.83;10.15;;;;;;;1.34;59.93;100688.66;6307233;22;20003;-86
2022/03/07 04:07:12;;;;;;;21.70;11.52;;;;;;;1.38;59.60;100684.06;6306267;22;20011;-85
2022/03/07 04:09:38;;;;;;;20.75;11.48;;;;;;;1.60;58.94;100683.50;6307770;22;20098;-84
2022/03/07 04:12:05;;;;;;;22.88;11.25;;;;;;;1.74;58.65;100689.50;6307928;22;20015;-85
2022/03/07 04:14:31;;;;;;;24.73;12.20;;;;;;;1.77;58.35;100691.06;6307341;22;20035;-85
2022/03/07 04:16:56;;;;;;;21.05;11.15;;;;;;;1.85;58.07;100688.78;6307614;22;20012;-86
2022/03/07 04:19:22;;;;;;;24.25;12.32;;;;;;;1.89;57.78;100687.63;6307512;22;20003;-84
2022/03/07 04:21:48;;;;;;;27.33;11.77;;;;;;;1.79;57.88;100697.03;6307006;22;20007;-85
2022/03/07 04:24:14;;;;;;;24.13;11.45;;;;;;;1.20;59.47;100698.28;6307275;22;20074;-86
2022/03/07 04:26:42;;;;;;;23.83;12.48;;;;;;;1.04;60.70;100703.66;6307080;22;20016;-83
2022/03/07 04:29:09;;;;;;;26.38;12.35;;;;;;;1.03;60.86;100707.19;6307448;22;20082;-85
2022/03/07 04:31:40;;;;;;;20.83;11.30;;;;;;;1.12;60.81;100698.81;6307238;22;20003;-84
2022/03/07 04:34:07;;;;;;;24.40;11.75;;;;;;;1.09;60.88;100706.84;6313084;22;20019;-86
2022/03/07 04:36:35;;;;;;;23.52;12.15;;;;;;;1.11;60.57;100702.34;6307623;22;20014;-85
2022/03/07 04:39:02;;;;;;;28.95;12.90;;;;;;;0.96;61.96;100695.50;6306498;22;20026;-84
2022/03/07 04:41:27;;;;;;;23.00;12.25;;;;;;;0.83;62.31;100703.25;6313046;22;20064;-83
2022/03/07 04:43:53;;;;;;;26.38;12.13;;;;;;;1.03;61.37;100704.59;6322769;22;20033;-86
2022/03/07 04:46:19;;;;;;;27.13;12.48;;;;;;;1.38;60.58;100703.19;6311830;22;20025;-83
2022/03/07 04:48:45;;;;;;;27.40;13.60;;;;;;;1.31;60.16;100707.13;6309583;22;20018;-84
2022/03/07 04:51:10;;;;;;;28.65;13.18;;;;;;;1.05;59.87;100707.97;6307261;22;20008;-82
2022/03/07 04:53:36;;;;;;;27.20;13.23;;;;;;;1.32;59.59;100706.19;6307837;22;20015;-83
2022/03/07 04:56:03;;;;;;;36.20;14.43;;;;;;;1.32;60.33;100705.38;6307479;22;20007;-85
2022/03/07 04:58:29;;;;;;;27.23;13.00;;;;;;;1.42;59.49;100707.28;6307246;22;20018;-83
2022/03/07 05:00:55;;;;;;;29.30;13.82;;;;;;;1.21;60.18;100703.44;6307208;22;20008;-83
2022/03/07 05:03:21;;;;;;;26.00;12.50;;;;;;;1.41;60.38;100700.38;6307220;22;20366;-83
2022/03/07 05:05:48;;;;;;;23.92;13.20;;;;;;;1.44;59.16;100708.00;6307606;22;20015;-83
2022/03/07 05:08:13;;;;;;;27.77;12.63;;;;;;;1.01;60.45;100709.09;6307290;22;20007;-84
2022/03/07 05:10:40;;;;;;;27.10;12.60;;;;;;;0.65;62.45;100714.81;6307564;22;20015;-84
2022/03/07 05:13:06;;;;;;;28.65;12.30;;;;;;;0.47;63.63;100710.72;6307556;22;20431;-84
2022/03/07 05:15:31;;;;;;;23.17;11.90;;;;;;;0.44;63.49;100706.53;6307432;22;20011;-85
2022/03/07 05:17:57;;;;;;;25.02;12.13;;;;;;;0.69;62.98;100715.47;6306616;22;20046;-82
2022/03/07 05:20:24;;;;;;;32.30;12.32;;;;;;;0.68;63.76;100712.03;6308062;22;20031;-85
2022/03/07 05:22:50;;;;;;;31.55;12.63;;;;;;;0.59;63.44;100714.38;6308551;22;20008;-85
2022/03/07 05:25:17;;;;;;;25.55;13.75;;;;;;;0.82;64.11;100713.78;6308434;22;20018;-84
2022/03/07 05:27:43;;;;;;;32.85;13.27;;;;;;;0.80;63.45;100718.25;6309005;22;20034;-83
2022/03/07 05:30:16;;;;;;;29.83;13.07;;;;;;;0.80;63.38;100708.66;6308897;22;20007;-84
2022/03/07 05:32:43;;;;;;;25.83;12.45;;;;;;;0.51;64.08;100715.66;6308114;22;20034;-84
2022/03/07 05:35:09;;;;;;;38.53;12.57;;;;;;;0.85;64.37;100718.81;6309358;22;20041;-83
2022/03/07 05:37:35;;;;;;;36.53;12.63;;;;;;;0.58;65.66;100718.75;6309843;22;19999;-83
2022/03/07 05:40:01;;;;;;;27.90;12.65;;;;;;;0.67;64.52;100717.31;6309684;22;20008;-87
2022/03/07 05:42:27;;;;;;;26.00;12.65;;;;;;;0.84;63.88;100719.72;6284916;22;20046;-85
2022/03/07 05:44:52;;;;;;;24.33;12.20;;;;;;;0.91;64.02;100723.63;6314475;22;20136;-90
2022/03/07 05:47:18;;;;;;;33.35;13.93;;;;;;;1.12;63.57;100722.28;6314549;22;20047;-86
2022/03/07 05:49:44;;;;;;;23.27;11.75;;;;;;;1.10;62.20;100725.91;6309070;22;20150;-87
2022/03/07 05:52:09;;;;;;;28.58;13.25;;;;;;;0.76;63.78;100733.25;6309983;22;20050;-85
2022/03/07 05:54:35;;;;;;;27.08;12.43;;;;;;;0.86;62.79;100728.31;6309577;22;20114;-87
2022/03/07 05:57:01;;;;;;;27.40;13.80;;;;;;;0.95;62.01;100732.97;6309700;22;20021;-87
2022/03/07 05:59:26;;;;;;;29.35;12.65;;;;;;;1.09;61.66;100732.94;6309347;22;19999;-85
2022/03/07 06:01:52;;;;;;;34.33;12.80;;;;;;;0.98;61.78;100735.38;6318199;22;20051;-87
2022/03/07 06:04:17;;;;;;;34.40;13.05;;;;;;;0.78;62.63;100735.78;6309689;22;20007;-85
2022/03/07 06:06:43;;;;;;;27.85;12.38;;;;;;;1.09;62.09;100740.75;6309603;22;20042;-85
2022/03/07 06:09:09;;;;;;;37.88;12.13;;;;;;;1.25;61.11;100736.25;6309470;22;20010;-88
2022/03/07 06:11:34;;;;;;;25.63;11.57;;;;;;;1.52;60.48;100734.44;6307817;22;20034;-88
2022/03/07 06:14:00;;;;;;;31.85;13.80;;;;;;;1.63;60.06;100744.22;6311729;22;20007;-86
2022/03/07 06:16:25;;;;;;;24.35;12.48;;;;;;;1.87;58.69;100744.38;6310941;22;20007;-87
2022/03/07 06:18:54;;;;;;;30.17;12.48;;;;;;;2.25;57.34;100750.50;6312253;22;20007;-85
2022/03/07 06:21:19;;;;;;;33.53;11.73;;;;;;;2.29;56.70;100745.88;6321307;22;20011;-86
2022/03/07 06:23:54;;;;;;;22.83;11.50;;;;;;;2.79;56.85;100756.34;6326984;22;20027;-88
2022/03/07 06:26:24;;;;;;;31.73;14.45;;;;;;;3.06;54.91;100759.63;6319176;22;20011;-87
2022/03/07 06:28:51;;;;;;;30.80;12.70;;;;;;;3.51;55.11;100760.72;6310940;22;20015;-88
2022/03/07 06:31:17;;;;;;;27.38;12.75;;;;;;;3.41;53.76;100765.00;6309531;22;20035;-88
2022/03/07 06:33:42;;;;;;;41.22;13.95;;;;;;;3.40;53.11;100767.72;6317127;22;20033;-86
2022/03/07 06:36:08;;;;;;;42.65;15.32;;;;;;;2.61;55.49;100768.09;6311056;22;20007;-85
2022/03/07 06:38:35;;;;;;;49.30;16.23;;;;;;;2.64;55.74;100767.03;6310758;22;20145;-87
2022/03/07 06:41:01;;;;;;;53.30;14.93;;;;;;;2.72;56.73;100764.75;6307999;22;20086;-88
2022/03/07 06:43:26;;;;;;;38.53;15.27;;;;;;;2.63;56.57;100766.19;6307383;22;20069;-87
2022/03/07 06:45:54;;;;;;;33.72;13.55;;;;;;;2.32;57.55;100762.22;6309453;22;20051;-86
2022/03/07 06:48:20;;;;;;;34.20;12.88;;;;;;;3.05;57.59;100767.59;6308600;22;20003;-86
2022/03/07 06:50:46;;;;;;;32.92;13.68;;;;;;;3.45;54.72;100771.66;6309714;22;20090;-85
2022/03/07 06:53:12;;;;;;;27.10;13.25;;;;;;;3.00;55.43;100777.56;6311102;22;20018;-89
2022/03/07 06:55:40;;;;;;;29.70;13.23;;;;;;;3.51;54.53;100775.66;6310705;22;20045;-87
2022/03/07 06:58:06;;;;;;;33.20;13.55;;;;;;;3.94;52.83;100776.81;6311767;22;20011;-86
2022/03/07 07:00:32;;;;;;;29.55;12.93;;;;;;;3.81;55.34;100785.69;6310176;22;20453;-84
2022/03/07 07:02:57;;;;;;;39.38;13.77;;;;;;;3.36;54.97;100787.22;6310476;22;20000;-84
2022/03/07 07:05:23;;;;;;;39.15;14.80;;;;;;;3.78;55.57;100791.97;6311190;22;20494;-82
2022/03/07 07:07:49;;;;;;;31.23;13.48;;;;;;;3.55;55.33;100793.63;6313669;22;20007;-82
2022/03/07 07:10:20;;;;;;;29.17;13.00;;;;;;;4.71;53.33;100795.47;6312310;22;20061;-88
2022/03/07 07:12:49;;;;;;;34.67;14.63;;;;;;;4.11;53.28;100801.75;6312999;22;20003;-91
2022/03/07 07:15:19;;;;;;;43.92;15.02;;;;;;;4.53;52.05;100795.06;6310750;22;20007;-88
2022/03/07 07:17:45;;;;;;;40.90;14.70;;;;;;;4.72;51.97;100802.38;6313627;22;20035;-86
2022/03/07 07:20:11;;;;;;;47.13;16.77;;;;;;;4.75;51.23;100807.38;6313137;22;20022;-84
2022/03/07 07:22:38;;;;;;;42.78;16.58;;;;;;;5.00;51.33;100812.41;6308451;22;19995;-86
2022/03/07 07:25:05;;;;;;;35.97;15.23;;;;;;;4.43;51.00;100808.06;6308697;22;20110;-88
2022/03/07 07:27:31;;;;;;;35.38;15.10;;;;;;;4.73;51.70;100814.53;6308754;22;20335;-85
2022/03/07 07:29:56;;;;;;;47.55;16.58;;;;;;;5.94;48.55;100820.63;6309451;22;20013;-89
2022/03/07 07:32:22;;;;;;;38.25;14.63;;;;;;;5.77;49.65;100829.06;6307687;22;20011;-88
2022/03/07 07:34:48;;;;;;;36.78;14.82;;;;;;;6.51;47.08;100826.34;6315109;22;20022;-87
2022/03/07 07:37:13;;;;;;;33.42;15.05;;;;;;;6.73;47.58;100830.63;6322393;22;20015;-87
2022/03/07 07:39:39;;;;;;;41.72;16.25;;;;;;;7.18;45.26;100831.97;6330220;22;20063;-86
2022/03/07 07:42:05;;;;;;;42.10;14.77;;;;;;;7.58;43.89;100836.41;6332386;22;20011;-87
2022/03/07 07:44:35;;;;;;;36.35;15.52;;;;;;;7.38;44.00;100843.44;6293965;22;20019;-87
2022/03/07 07:47:01;;;;;;;40.25;16.00;;;;;;;7.95;43.67;100839.25;6308020;22;20037;-89
2022/03/07 07:49:27;;;;;;;46.67;16.27;;;;;;;8.82;41.81;100844.34;6311654;22;20007;-91
2022/03/07 07:51:53;;;;;;;44.22;16.52;;;;;;;9.24;40.80;100850.09;6306926;22;20346;-88
2022/03/07 07:54:18;;;;;;;39.40;15.75;;;;;;;9.47;40.59;100854.97;6311917;22;20035;-91
2022/03/07 07:56:46;;;;;;;52.22;16.63;;;;;;;9.98;40.17;100849.91;6313887;22;20011;-90
2022/03/07 07:59:12;;;;;;;33.25;15.27;;;;;;;9.80;39.60;100852.56;6309073;22;20003;-87
2022/03/07 08:01:37;;;;;;;33.70;15.50;;;;;;;10.14;39.01;100849.31;6309441;22;20018;-87
2022/03/07 08:04:03;;;;;;;29.25;14.65;;;;;;;10.94;37.00;100856.22;6308753;22;20086;-88
2022/03/07 08:06:29;;;;;;;34.00;15.85;;;;;;;11.14;35.90;100850.53;6303872;22;20042;-89
2022/03/07 08:08:54;;;;;;;37.38;15.52;;;;;;;10.85;36.21;100850.88;6305095;22;20428;-89
2022/03/07 08:11:23;;;;;;;32.60;15.93;;;;;;;11.75;35.14;100853.00;6311459;22;20011;-89
2022/03/07 08:13:49;;;;;;;30.45;14.93;;;;;;;11.43;35.54;100850.19;6307605;22;20004;-90
2022/03/07 08:16:16;;;;;;;26.52;14.73;;;;;;;11.98;34.40;100857.69;6306869;22;20082;-87
2022/03/07 08:18:42;;;;;;;28.33;14.88;;;;;;;12.17;34.74;100854.72;6305467;22;20007;-90
2022/03/07 08:21:08;;;;;;;27.83;15.02;;;;;;;11.96;34.28;100862.34;6310278;22;20034;-92
2022/03/07 08:23:34;;;;;;;30.20;15.10;;;;;;;11.42;35.14;100853.81;6308197;22;20019;-88
2022/03/07 08:25:59;;;;;;;33.25;15.40;;;;;;;11.93;34.27;100861.66;6307746;22;20012;-92
2022/03/07 08:28:25;;;;;;;27.38;14.50;;;;;;;11.05;35.45;100851.47;6308356;22;20011;-88
2022/03/07 08:30:50;;;;;;;26.30;14.20;;;;;;;11.91;35.50;100855.69;6306061;22;20035;-83
2022/03/07 08:33:16;;;;;;;25.52;15.27;;;;;;;12.13;33.91;100854.22;6308033;22;20034;-87
2022/03/07 08:36:39;;;;;;;25.33;14.90;;;;;;;12.26;34.07;100859.06;6322117;22;20029;-87
2022/03/07 08:39:52;;;;;;;25.15;14.05;;;;;;;12.92;32.96;100857.06;6256635;22;20042;-86
2022/03/07 09:23:46;;;;;;;22.70;12.05;;;;;;;12.42;35.81;100845.78;6248216;22;20020;-86
2022/03/07 09:26:19;;;;;;;20.95;12.63;;;;;;;13.09;33.97;100841.91;6185562;23;20012;-85
2022/03/07 09:31:20;;;;;;;22.55;12.85;;;;;;;13.09;33.82;100846.41;6234604;22;20027;-86
2022/03/07 09:33:49;;;;;;;21.27;12.43;;;;;;;13.70;32.89;100857.16;6225547;23;20048;-86
2022/03/07 09:36:18;;;;;;;28.10;13.38;;;;;;;12.79;34.66;100845.28;6202779;23;20005;-86
2022/03/07 09:38:43;;;;;;;26.60;13.57;;;;;;;12.67;35.42;100852.75;6178416;23;20008;-83
2022/03/07 09:41:10;;;;;;;28.00;12.63;;;;;;;13.12;34.50;100846.06;6231337;23;20011;-85
2022/03/07 09:43:37;;;;;;;20.85;12.38;;;;;;;13.70;33.38;100851.81;6203586;23;20012;-84
2022/03/07 09:46:12;;;;;;;22.77;12.45;;;;;;;13.67;33.10;100852.16;6232847;23;20013;-82
2022/03/07 09:48:40;;;;;;;23.80;12.88;;;;;;;13.96;33.28;100852.34;6228649;23;20013;-87
2022/03/07 09:51:06;;;;;;;26.45;12.38;;;;;;;12.70;35.72;100847.09;6170587;23;20027;-85
2022/03/07 09:53:34;;;;;;;29.67;12.52;;;;;;;13.24;35.22;100850.84;6196016;23;20005;-85
2022/03/07 09:55:59;;;;;;;24.60;12.70;;;;;;;12.40;35.64;100845.94;6221665;23;20009;-83
2022/03/07 09:58:28;;;;;;;25.25;13.70;;;;;;;11.59;37.68;100852.91;6224210;23;20402;-89
2022/03/07 10:01:05;;;;;;;25.05;12.82;;;;;;;12.30;36.79;100852.41;6199388;23;20012;-85
2022/03/07 10:03:31;;;;;;;23.02;12.73;;;;;;;12.88;35.13;100858.38;6224626;23;20013;-82
2022/03/07 10:06:00;;;;;;;26.40;12.30;;;;;;;13.16;34.63;100860.66;6200553;23;20035;-83
2022/03/07 10:08:28;;;;;;;25.88;13.18;;;;;;;13.55;33.85;100858.91;6228594;23;20057;-86
2022/03/07 10:10:54;;;;;;;21.35;13.30;;;;;;;12.87;34.71;100861.19;6229929;23;20011;-84
2022/03/07 10:13:21;;;;;;;20.35;11.85;;;;;;;13.57;33.91;100859.53;6207760;23;20036;-86
2022/03/07 10:15:59;;;;;;;18.35;11.25;;;;;;;14.68;32.48;100852.81;6205539;23;20048;-85
2022/03/07 10:18:29;;;;;;;22.58;11.38;;;;;;;15.40;30.85;100853.91;6203310;23;20009;-86
2022/03/07 10:21:20;;;;;;;23.08;10.20;;;;;;;15.84;29.49;100853.84;6200140;23;20076;-86
2022/03/07 10:23:50;;;;;;;17.73;10.45;;;;;;;15.20;30.10;100851.97;6210645;23;20016;-84
2022/03/07 10:26:16;;;;;;;19.05;10.50;;;;;;;14.37;31.62;100854.75;6203163;23;20020;-87
2022/03/07 10:28:42;;;;;;;17.02;11.07;;;;;;;15.00;30.48;100855.19;6223500;23;20478;-86
2022/03/07 10:31:15;;;;;;;17.08;10.27;;;;;;;14.39;31.29;100858.06;6232138;22;20089;-85
2022/03/07 10:33:43;;;;;;;18.92;11.88;;;;;;;14.99;30.30;100850.84;6273989;22;20006;-88
2022/03/07 10:36:09;;;;;;;27.23;11.38;;;;;;;15.10;30.29;100865.59;6273771;22;20020;-86
2022/03/07 10:38:34;;;;;;;19.35;11.85;;;;;;;14.92;30.27;100849.94;6266686;22;20071;-85
2022/03/07 10:41:41;;;;;;;18.40;11.18;;;;;;;15.60;29.11;100854.22;6253805;22;20093;-83
2022/03/07 10:47:06;;;;;;;18.77;10.55;;;;;;;15.21;30.38;100845.63;6269269;22;20019;-84
2022/03/07 10:57:10;;;;;;;18.63;10.73;;;;;;;15.93;28.34;100828.69;6308210;22;20019;-85
2022/03/07 11:05:38;;;;;;;17.77;10.77;;;;;;;16.31;27.21;100825.75;6311898;22;20098;-85
2022/03/07 11:08:48;;;;;;;19.00;11.90;;;;;;;16.82;26.21;100815.72;6307855;22;20025;-85
2022/03/07 11:12:14;;;;;;;18.20;11.85;;;;;;;16.03;27.06;100820.38;6303589;22;20000;-84
2022/03/07 11:34:10;;;;;;;25.23;13.40;;;;;;;12.37;32.97;100779.00;6300434;22;20019;-80
2022/03/07 11:36:47;;;;;;;31.27;13.90;;;;;;;12.04;34.25;100772.84;6326871;22;20222;-86
2022/03/07 11:39:58;;;;;;;24.92;14.30;;;;;;;11.57;35.13;100766.44;6332602;22;20021;-80
2022/03/07 11:43:32;;;;;;;20.57;13.27;;;;;;;11.46;34.98;100762.28;6332349;22;20034;-80
2022/03/07 11:55:19;;;;;;;26.10;13.57;;;;;;;12.59;32.90;100743.75;6253445;22;20001;-82
2022/03/07 12:20:08;;;;;;;22.90;14.00;;;;;;;12.99;31.27;100712.72;6247151;22;20251;-86
2022/03/07 12:22:35;;;;;;;26.85;15.30;;;;;;;11.89;33.93;100698.34;6216772;22;20261;-87
2022/03/07 12:25:06;;;;;;;25.92;14.93;;;;;;;11.54;34.18;100690.63;6295825;22;20029;-84
2022/03/07 12:27:37;;;;;;;24.10;14.75;;;;;;;11.46;35.05;100682.66;6298490;22;20004;-82
2022/03/07 12:35:35;;;;;;;17.00;11.43;;;;;;;10.93;35.98;100679.53;6274925;22;20010;-83
2022/03/07 12:38:07;;;;;;;26.65;15.32;;;;;;;11.00;36.17;100675.25;6345682;22;20048;-85
2022/03/07 12:40:38;;;;;;;23.35;15.25;;;;;;;10.83;36.26;100669.06;6359837;22;20014;-89
2022/03/07 12:43:18;;;;;;;28.87;15.27;;;;;;;10.72;37.00;100664.88;6330655;22;20021;-90
2022/03/07 13:13:17;;;;;;;22.70;12.87;;;;;;;10.95;36.81;100620.03;6351309;22;20014;-83
2022/03/07 13:16:28;;;;;;;26.75;16.00;;;;;;;10.70;37.18;100613.88;6350858;22;20287;-84
2022/03/07 13:19:44;;;;;;;24.23;15.10;;;;;;;10.72;37.59;100611.88;6350909;22;19998;-84
2022/03/07 13:26:00;;;;;;;38.15;17.10;;;;;;;10.30;38.64;100611.03;6354712;22;20002;-84
2022/03/07 15:46:35;;;;;;;33.97;19.42;;;;;;;10.30;38.40;100521.81;6263499;22;20003;-90
2022/03/07 15:52:31;;;;;;;35.72;18.88;;;;;;;10.50;37.62;100514.41;6267983;22;20020;-86
2022/03/07 15:55:21;;;;;;;39.13;21.58;;;;;;;10.35;37.79;100516.00;6245328;22;20046;-86
2022/03/07 15:57:54;;;;;;;33.90;18.08;;;;;;;10.16;38.17;100514.47;6233239;23;20012;-86
2022/03/07 16:00:30;;;;;;;32.97;17.70;;;;;;;10.11;38.35;100515.91;6268968;22;20443;-90
2022/03/07 16:05:50;;;;;;;33.17;18.80;;;;;;;10.44;37.87;100509.72;6258200;22;20016;-87
2022/03/07 16:08:51;;;;;;;28.65;17.63;;;;;;;10.32;37.83;100508.38;6268568;22;20016;-87
2022/03/07 16:58:28;;;;;;;29.93;17.60;;;;;;;9.99;39.52;100544.47;6288714;22;20008;-87
2022/03/07 17:20:05;;;;;;;40.07;19.00;;;;;;;9.84;39.94;100554.78;6243258;22;20245;-84
2022/03/07 17:22:44;;;;;;;39.30;18.10;;;;;;;10.03;40.38;100553.75;6303966;22;20000;-84